Time;durP1;ratioP1;P1;durP2;ratioP2;P2;SDS_P1;SDS_P2;PMS_P1;PMS_P2;Temp;Humidity;BMP_temperature;BMP_pressure;BME280_temperature;BME280_humidity;BME280_pressure;Samples;Min_cycle;Max_cycle;Signal;HPM_P1;HPM_P2
2022/01/29 00:00:25;;;;;;;13.38;2.47;;;2.00;99.90;;;;;;5094377;28;20089;-47
2022/01/29 00:03:31;;;;;;;;;;;2.10;99.90;;;;;;5103741;28;20063;-49
2022/01/29 00:06:56;;;;;;;13.05;1.77;;;2.20;99.90;;;;;;5104945;28;19919;-47
2022/01/29 00:10:21;;;;;;;24.27;2.85;;;2.20;99.90;;;;;;5097756;28;20775;-47
2022/01/29 00:13:47;;;;;;;15.05;2.20;;;2.20;99.90;;;;;;5099379;28;20035;-50
2022/01/29 00:17:13;;;;;;;7.28;2.00;;;2.10;99.90;;;;;;5090479;28;20463;-46
2022/01/29 00:20:37;;;;;;;15.05;2.53;;;2.20;99.90;;;;;;5099396;28;20063;-48
2022/01/29 00:24:03;;;;;;;16.20;2.15;;;2.20;99.90;;;;;;5104999;28;20028;-46
2022/01/29 00:27:33;;;;;;;13.90;2.85;;;2.30;99.90;;;;;;5101820;28;20098;-46
2022/01/29 00:30:53;;;;;;;21.55;3.05;;;2.30;99.90;;;;;;5087988;28;20044;-48
2022/01/29 00:34:19;;;;;;;11.98;2.35;;;2.40;99.90;;;;;;5100962;28;20391;-46
2022/01/29 00:37:44;;;;;;;9.45;1.90;;;2.40;99.90;;;;;;5091976;28;20036;-45
2022/01/29 00:41:09;;;;;;;9.77;1.80;;;2.30;99.90;;;;;;5093910;28;20078;-46
2022/01/29 00:44:35;;;;;;;12.50;2.72;;;2.30;99.90;;;;;;5098747;28;20127;-45
2022/01/29 00:48:00;;;;;;;9.35;2.50;;;2.30;99.90;;;;;;5106358;28;20065;-46
2022/01/29 00:51:26;;;;;;;14.27;2.40;;;2.20;99.90;;;;;;5086464;28;20486;-48
2022/01/29 00:54:51;;;;;;;16.20;2.97;;;2.10;99.90;;;;;;5101676;28;20032;-46
2022/01/29 00:58:16;;;;;;;8.07;2.05;;;2.10;99.90;;;;;;5096574;28;20039;-46
2022/01/29 01:01:42;;;;;;;10.00;1.98;;;2.10;99.90;;;;;;5100160;28;20123;-48
2022/01/29 01:05:07;;;;;;;12.18;2.50;;;2.10;99.90;;;;;;5099021;28;20032;-48
2022/01/29 01:08:32;;;;;;;10.75;1.90;;;2.10;99.90;;;;;;5105125;28;20505;-46
2022/01/29 01:11:58;;;;;;;13.18;2.28;;;2.20;99.90;;;;;;5095709;28;20083;-48
2022/01/29 01:15:23;;;;;;;13.85;2.42;;;2.30;99.90;;;;;;5100032;28;20051;-48
2022/01/29 01:18:48;;;;;;;11.15;2.05;;;2.30;99.90;;;;;;5091050;28;20788;-46
2022/01/29 01:22:15;;;;;;;12.82;2.10;;;2.40;99.90;;;;;;5103323;28;20071;-47
2022/01/29 01:25:54;;;;;;;11.18;3.45;;;2.50;99.90;;;;;;5104720;28;20043;-47
2022/01/29 01:29:19;;;;;;;13.20;2.22;;;2.50;99.90;;;;;;5096525;28;20765;-48
2022/01/29 01:32:45;;;;;;;13.38;2.33;;;2.60;99.90;;;;;;5091888;28;20040;-45
2022/01/29 01:36:11;;;;;;;18.63;3.17;;;2.60;99.90;;;;;;5101192;28;20028;-50
2022/01/29 01:39:38;;;;;;;10.88;2.33;;;2.60;99.90;;;;;;5099761;28;20512;-48
2022/01/29 01:43:01;;;;;;;10.27;2.08;;;2.70;99.90;;;;;;5099915;28;20028;-47
2022/01/29 01:46:28;;;;;;;21.20;2.70;;;2.70;99.90;;;;;;5100788;28;20081;-46
2022/01/29 01:49:52;;;;;;;12.23;2.17;;;2.70;99.90;;;;;;5096485;28;20071;-47
2022/01/29 01:53:17;;;;;;;14.10;3.35;;;2.70;99.90;;;;;;5101330;28;20039;-47
2022/01/29 01:56:42;;;;;;;15.35;2.25;;;2.70;99.90;;;;;;5106345;28;20043;-46
2022/01/29 02:00:08;;;;;;;11.60;2.08;;;2.80;99.90;;;;;;5102090;28;20043;-46
2022/01/29 02:03:33;;;;;;;7.80;1.80;;;2.70;99.90;;;;;;5098332;28;20039;-50
2022/01/29 02:06:59;;;;;;;10.85;2.20;;;2.80;99.90;;;;;;5098728;28;20483;-49
2022/01/29 02:10:26;;;;;;;10.70;2.30;;;2.70;99.90;;;;;;5096028;28;20048;-48
2022/01/29 02:13:49;;;;;;;14.88;2.60;;;2.80;99.90;;;;;;5103485;28;20050;-47
2022/01/29 02:17:16;;;;;;;14.63;3.20;;;2.80;99.90;;;;;;5103274;28;20059;-47
2022/01/29 02:20:40;;;;;;;24.20;3.88;;;2.90;99.90;;;;;;5097124;28;20051;-47
2022/01/29 02:24:05;;;;;;;17.70;2.53;;;2.90;99.90;;;;;;5096868;28;20465;-47
2022/01/29 02:27:31;;;;;;;8.70;2.30;;;2.90;99.90;;;;;;5103630;28;20036;-49
2022/01/29 02:30:57;;;;;;;21.08;2.20;;;3.00;99.90;;;;;;5103878;28;20051;-49
2022/01/29 02:34:21;;;;;;;8.27;2.05;;;3.00;99.90;;;;;;5104144;28;20101;-47
2022/01/29 02:37:51;;;;;;;15.38;2.55;;;2.90;99.90;;;;;;5102305;28;20043;-50
2022/01/29 02:41:12;;;;;;;5.85;1.90;;;3.00;99.90;;;;;;5106595;28;20028;-46
2022/01/29 02:44:37;;;;;;;12.60;2.72;;;3.00;99.90;;;;;;5103364;28;20040;-46
2022/01/29 02:48:03;;;;;;;13.38;2.40;;;3.00;99.90;;;;;;5104865;28;20092;-45
2022/01/29 02:51:28;;;;;;;15.25;2.67;;;3.00;99.90;;;;;;5107723;28;20128;-49
2022/01/29 02:54:53;;;;;;;14.48;3.25;;;3.00;99.90;;;;;;5109419;28;20453;-48
2022/01/29 02:58:19;;;;;;;13.23;2.55;;;3.10;99.90;;;;;;5104874;28;20036;-49
2022/01/29 03:01:44;;;;;;;10.20;1.85;;;3.10;99.90;;;;;;5101794;28;20123;-47
2022/01/29 03:05:09;;;;;;;16.60;3.05;;;3.10;99.90;;;;;;5109316;28;20511;-48
2022/01/29 03:08:35;;;;;;;11.68;2.50;;;3.20;99.90;;;;;;5104189;28;20039;-49
2022/01/29 03:12:02;;;;;;;15.10;2.90;;;3.20;99.90;;;;;;5101726;28;20035;-50
2022/01/29 03:15:26;;;;;;;21.58;4.05;;;3.20;99.90;;;;;;5109021;28;20407;-47
2022/01/29 03:18:51;;;;;;;19.38;3.30;;;3.20;99.90;;;;;;5106291;28;20043;-46
2022/01/29 03:22:16;;;;;;;12.32;2.70;;;3.20;99.90;;;;;;5101332;28;20036;-47
2022/01/29 03:25:42;;;;;;;19.70;3.42;;;3.20;99.90;;;;;;5103377;28;20031;-49
2022/01/29 03:29:07;;;;;;;12.38;2.75;;;3.20;99.90;;;;;;5103169;28;20406;-46
2022/01/29 03:31:52;;;;;;;17.35;3.45;;;3.20;99.90;;;;;;5101260;28;20089;-59
2022/01/29 03:34:58;;;;;;;10.35;3.45;;;3.10;99.90;;;;;;5109134;28;20035;-59
2022/01/29 03:38:24;;;;;;;11.43;3.05;;;3.10;99.90;;;;;;5102235;28;20085;-59
2022/01/29 03:41:48;;;;;;;16.00;2.92;;;3.10;99.90;;;;;;5104917;28;20040;-59
2022/01/29 03:45:19;;;;;;;10.48;2.85;;;3.10;99.90;;;;;;5108665;28;20631;-59
2022/01/29 03:48:39;;;;;;;16.20;2.97;;;3.10;99.90;;;;;;5103497;28;20047;-60
2022/01/29 03:52:05;;;;;;;15.63;3.40;;;3.00;99.90;;;;;;5104900;28;20066;-60
2022/01/29 03:55:30;;;;;;;17.77;3.03;;;3.00;99.90;;;;;;5109792;28;20032;-60
2022/01/29 03:58:55;;;;;;;12.88;2.83;;;3.00;99.90;;;;;;5110785;28;20080;-60
2022/01/29 04:02:21;;;;;;;17.42;3.67;;;3.00;99.90;;;;;;5105515;28;20384;-59
2022/01/29 04:05:46;;;;;;;13.80;3.63;;;2.90;99.90;;;;;;5109311;28;20119;-59
2022/01/29 04:09:12;;;;;;;14.60;3.75;;;3.00;99.90;;;;;;5110858;28;20082;-60
2022/01/29 04:12:42;;;;;;;11.05;3.03;;;2.90;99.90;;;;;;5105122;28;20040;-60
2022/01/29 04:16:02;;;;;;;17.33;4.28;;;2.90;99.90;;;;;;5105477;28;20027;-59
2022/01/29 04:19:27;;;;;;;15.20;4.03;;;2.90;99.90;;;;;;5110668;28;20517;-58
2022/01/29 04:22:53;;;;;;;19.20;5.13;;;2.90;99.90;;;;;;5101416;28;20040;-58
2022/01/29 04:26:18;;;;;;;10.00;3.42;;;2.80;99.90;;;;;;5092111;28;20028;-59
2022/01/29 04:29:56;;;;;;;17.10;3.92;;;2.80;99.90;;;;;;5106213;28;20127;-59
2022/01/29 04:36:23;;;;;;;15.25;3.20;;;2.90;99.90;;;;;;5106207;28;20035;-59
2022/01/29 04:39:49;;;;;;;16.95;3.78;;;2.90;99.90;;;;;;5107860;28;20247;-59
2022/01/29 04:43:14;;;;;;;18.40;5.20;;;2.90;99.90;;;;;;5100817;28;20031;-60
2022/01/29 04:46:39;;;;;;;11.20;3.78;;;2.90;99.90;;;;;;5090727;28;20129;-60
2022/01/29 04:50:05;;;;;;;15.70;5.85;;;2.90;99.90;;;;;;5111692;28;20040;-59
2022/01/29 04:53:30;;;;;;;16.60;4.63;;;2.90;99.90;;;;;;5106016;28;20659;-59
2022/01/29 04:56:55;;;;;;;16.10;5.78;;;2.90;99.90;;;;;;5092603;28;20031;-59
2022/01/29 05:00:21;;;;;;;15.00;4.70;;;3.00;99.90;;;;;;5091411;28;20119;-59
2022/01/29 05:03:49;;;;;;;17.77;4.55;;;3.00;99.90;;;;;;5108006;28;20039;-60
2022/01/29 05:06:55;;;;;;;;;;;3.00;99.90;;;;;;5094736;28;20035;-59
2022/01/29 05:10:21;;;;;;;16.27;4.57;;;3.00;99.90;;;;;;5111466;28;20348;-59
2022/01/29 05:13:45;;;;;;;25.98;5.53;;;3.00;99.90;;;;;;5107537;28;20042;-60
2022/01/29 05:27:08;;;;;;;15.98;5.78;;;3.00;99.90;;;;;;5093888;28;20035;-60
2022/01/29 05:30:32;;;;;;;14.80;5.07;;;3.00;99.90;;;;;;5105305;28;20451;-59
2022/01/29 05:33:57;;;;;;;17.92;5.35;;;3.00;99.90;;;;;;5109107;28;20032;-59
2022/01/29 05:37:23;;;;;;;18.27;6.03;;;3.00;99.90;;;;;;5103230;28;20032;-59
2022/01/29 05:40:48;;;;;;;16.40;5.65;;;3.00;99.90;;;;;;5105451;28;20483;-59
2022/01/29 05:44:14;;;;;;;18.92;4.75;;;3.10;99.90;;;;;;5101606;28;20089;-61
2022/01/29 05:47:40;;;;;;;15.07;5.82;;;3.10;99.90;;;;;;5103481;28;20039;-60
2022/01/29 05:51:04;;;;;;;15.38;5.28;;;3.10;99.90;;;;;;5108641;28;20419;-60
2022/01/29 05:54:30;;;;;;;19.15;6.65;;;3.10;99.90;;;;;;5105136;28;20046;-59
2022/01/29 05:57:55;;;;;;;20.67;6.43;;;3.10;99.90;;;;;;5103156;28;20071;-59
2022/01/29 06:01:20;;;;;;;21.65;7.07;;;3.10;99.90;;;;;;5104868;28;20032;-58
2022/01/29 06:04:46;;;;;;;17.55;6.72;;;3.10;99.90;;;;;;5104708;28;20083;-59
2022/01/29 06:08:11;;;;;;;22.73;7.13;;;3.10;99.90;;;;;;5102990;28;20510;-60
2022/01/29 06:11:37;;;;;;;21.13;7.53;;;3.10;99.90;;;;;;5106646;28;20036;-59
2022/01/29 06:15:02;;;;;;;20.63;6.68;;;3.20;99.90;;;;;;5090231;28;20073;-58
2022/01/29 06:18:27;;;;;;;12.43;7.15;;;3.20;99.90;;;;;;5106672;28;20040;-59
2022/01/29 06:21:53;;;;;;;20.67;6.85;;;3.20;99.90;;;;;;5102569;28;20493;-59
2022/01/29 06:25:18;;;;;;;18.27;7.10;;;3.20;99.90;;;;;;5110145;28;20036;-59
2022/01/29 06:28:43;;;;;;;20.65;7.53;;;3.20;99.90;;;;;;5106153;28;20046;-59
2022/01/29 06:32:09;;;;;;;21.27;8.70;;;3.20;99.90;;;;;;5092888;28;20031;-59
2022/01/29 06:35:34;;;;;;;18.33;7.30;;;3.20;99.90;;;;;;5089728;28;20032;-58
2022/01/29 06:38:59;;;;;;;23.40;8.20;;;3.20;99.90;;;;;;5105053;28;20430;-59
2022/01/29 06:42:25;;;;;;;18.92;7.10;;;3.30;99.90;;;;;;5089201;28;20040;-60
2022/01/29 06:45:53;;;;;;;26.90;8.82;;;3.30;99.90;;;;;;5106843;28;20031;-60
2022/01/29 06:49:19;;;;;;;20.50;8.07;;;3.30;99.90;;;;;;5106915;28;20039;-59
2022/01/29 06:52:44;;;;;;;16.08;8.15;;;3.30;99.90;;;;;;5103550;28;20039;-59
2022/01/29 06:56:09;;;;;;;19.50;9.23;;;3.40;99.90;;;;;;5109478;28;20038;-60
2022/01/29 06:59:35;;;;;;;20.38;7.40;;;3.40;99.90;;;;;;5104879;28;20495;-59
2022/01/29 07:03:00;;;;;;;18.73;7.47;;;3.40;99.90;;;;;;5105683;28;20116;-59
2022/01/29 07:06:25;;;;;;;16.85;7.70;;;3.40;99.90;;;;;;5092329;28;20032;-59
2022/01/29 07:09:51;;;;;;;27.25;10.07;;;3.50;99.90;;;;;;5105583;28;20070;-59
2022/01/29 07:13:19;;;;;;;22.95;8.60;;;3.50;99.90;;;;;;5107604;28;20042;-59
2022/01/29 07:16:43;;;;;;;27.23;11.63;;;3.50;99.90;;;;;;5103453;28;20523;-59
2022/01/29 07:20:07;;;;;;;17.00;9.50;;;3.50;99.90;;;;;;5102622;28;20046;-61
2022/01/29 07:23:32;;;;;;;18.63;7.72;;;3.60;99.90;;;;;;5092048;28;20031;-59
2022/01/29 07:26:58;;;;;;;16.85;8.30;;;3.60;99.90;;;;;;5102678;28;20039;-60
2022/01/29 07:30:23;;;;;;;24.58;9.90;;;3.60;99.90;;;;;;5106037;28;20039;-60
2022/01/29 07:33:49;;;;;;;20.15;8.00;;;3.60;99.90;;;;;;5104389;28;20396;-57
2022/01/29 07:37:14;;;;;;;15.77;7.50;;;3.70;99.90;;;;;;5102167;28;20042;-59
2022/01/29 07:40:39;;;;;;;17.10;7.63;;;3.70;99.90;;;;;;5105145;28;20464;-58
2022/01/29 07:44:04;;;;;;;15.73;8.10;;;3.70;99.90;;;;;;5099674;28;20032;-58
2022/01/29 07:47:30;;;;;;;18.45;9.02;;;3.70;99.90;;;;;;5107727;28;20063;-61
2022/01/29 07:50:55;;;;;;;15.93;8.25;;;3.70;99.90;;;;;;5105981;28;20051;-59
2022/01/29 07:54:21;;;;;;;20.35;7.70;;;3.80;99.90;;;;;;5100282;28;20035;-60
2022/01/29 07:57:46;;;;;;;16.08;7.72;;;3.80;99.90;;;;;;5106034;28;20048;-60
2022/01/29 08:01:11;;;;;;;21.13;9.75;;;3.80;99.90;;;;;;5107577;28;20123;-60
2022/01/29 08:04:37;;;;;;;20.77;9.30;;;3.80;99.90;;;;;;5103179;28;20043;-59
2022/01/29 08:08:02;;;;;;;16.08;7.38;;;3.90;99.90;;;;;;5103895;28;20054;-60
2022/01/29 08:11:27;;;;;;;20.15;11.63;;;3.90;99.90;;;;;;5107409;28;20079;-59
2022/01/29 08:14:53;;;;;;;16.33;7.63;;;3.90;99.90;;;;;;5103242;28;20032;-60
2022/01/29 08:18:18;;;;;;;19.70;7.60;;;4.00;99.90;;;;;;5100248;28;20036;-59
2022/01/29 08:21:43;;;;;;;15.43;7.40;;;4.00;99.90;;;;;;5087616;28;20044;-60
2022/01/29 08:25:09;;;;;;;13.85;7.95;;;4.00;99.90;;;;;;5105040;28;20518;-60
2022/01/29 08:28:34;;;;;;;13.27;8.13;;;4.10;99.90;;;;;;5103706;28;20082;-59
2022/01/29 08:31:59;;;;;;;13.88;7.25;;;4.10;99.90;;;;;;5087345;28;20076;-60
2022/01/29 08:35:25;;;;;;;13.18;7.13;;;4.10;99.90;;;;;;5101820;28;20372;-60
2022/01/29 08:38:50;;;;;;;12.65;7.03;;;4.10;99.90;;;;;;5104524;28;20031;-59
2022/01/29 08:42:15;;;;;;;15.63;7.93;;;4.20;99.90;;;;;;5100545;28;20051;-60
2022/01/29 08:45:41;;;;;;;16.08;8.65;;;4.20;99.90;;;;;;5103858;28;20088;-60
2022/01/29 08:49:06;;;;;;;15.13;9.10;;;4.20;99.90;;;;;;5090155;28;20702;-60
2022/01/29 08:52:32;;;;;;;17.35;10.25;;;4.30;99.90;;;;;;5104971;28;20036;-59
2022/01/29 08:55:57;;;;;;;17.23;9.07;;;4.30;99.90;;;;;;5106751;28;20024;-60
2022/01/29 08:59:22;;;;;;;12.35;6.88;;;4.30;99.90;;;;;;5102908;28;20508;-60
2022/01/29 09:02:48;;;;;;;16.50;9.25;;;4.40;99.90;;;;;;5095470;28;20046;-60
2022/01/29 09:06:13;;;;;;;13.70;7.75;;;4.40;99.90;;;;;;5106782;28;20031;-60
2022/01/29 09:09:43;;;;;;;17.95;7.78;;;4.40;99.90;;;;;;5089924;28;20356;-60
2022/01/29 09:13:04;;;;;;;14.10;8.45;;;4.50;99.90;;;;;;5101652;28;20039;-60
2022/01/29 09:16:29;;;;;;;12.23;6.70;;;4.50;99.90;;;;;;5104308;28;20123;-60
2022/01/29 09:19:54;;;;;;;14.68;7.97;;;4.50;99.90;;;;;;5106879;28;20043;-60
2022/01/29 09:23:20;;;;;;;13.77;8.77;;;4.50;99.90;;;;;;5102517;28;20039;-60
2022/01/29 09:26:45;;;;;;;14.35;7.25;;;4.50;99.90;;;;;;5102343;28;20113;-59
2022/01/29 09:30:10;;;;;;;12.20;6.32;;;4.60;99.90;;;;;;5109815;28;20073;-60
2022/01/29 09:32:56;;;;;;;11.30;7.10;;;4.60;99.90;;;;;;5104539;28;20096;-52
2022/01/29 09:35:22;;;;;;;13.90;7.82;;;4.60;99.90;;;;;;5109838;28;20141;-50
2022/01/29 09:37:47;;;;;;;10.15;6.80;;;4.70;99.90;;;;;;5085748;28;20020;-52
2022/01/29 09:40:14;;;;;;;13.13;8.48;;;4.70;99.90;;;;;;5109929;28;20035;-51
2022/01/29 09:42:40;;;;;;;14.85;8.95;;;4.70;99.90;;;;;;5101137;28;20031;-53
2022/01/29 09:45:08;;;;;;;13.45;7.35;;;4.70;99.90;;;;;;5110241;28;20027;-53
2022/01/29 09:47:34;;;;;;;13.80;7.65;;;4.70;99.90;;;;;;5107635;28;20030;-54
2022/01/29 09:50:00;;;;;;;20.23;10.40;;;4.70;99.90;;;;;;5109252;28;20041;-50
2022/01/29 09:52:26;;;;;;;20.05;9.85;;;4.80;99.90;;;;;;5107285;28;20449;-49
2022/01/29 09:54:51;;;;;;;16.95;9.32;;;4.80;99.90;;;;;;5109509;28;20020;-50
2022/01/29 09:57:17;;;;;;;16.23;8.18;;;4.80;99.90;;;;;;5107789;28;20463;-52
2022/01/29 09:59:43;;;;;;;15.80;8.70;;;4.80;99.90;;;;;;5109472;28;20375;-51
2022/01/29 10:02:14;;;;;;;15.23;9.00;;;4.80;99.90;;;;;;5107180;28;20110;-53
2022/01/29 10:04:47;;;;;;;12.55;6.63;;;4.90;99.90;;;;;;5109623;28;20072;-50
2022/01/29 10:07:21;;;;;;;17.90;9.35;;;4.90;99.90;;;;;;5107481;28;20156;-54
2022/01/29 10:09:47;;;;;;;15.50;8.75;;;4.90;99.90;;;;;;5085853;28;20035;-52
2022/01/29 10:12:27;;;;;;;14.07;7.63;;;4.90;99.90;;;;;;5108465;28;20024;-50
2022/01/29 10:15:13;;;;;;;14.10;7.55;;;5.00;99.90;;;;;;5088699;28;20054;-55
2022/01/29 10:17:45;;;;;;;16.92;9.07;;;5.00;99.90;;;;;;5088511;28;20044;-49
2022/01/29 10:20:21;;;;;;;15.95;8.52;;;5.00;99.90;;;;;;5108700;28;20058;-48
2022/01/29 10:22:57;;;;;;;13.65;8.23;;;5.00;99.90;;;;;;5090408;28;20020;-53
2022/01/29 10:25:28;;;;;;;17.15;8.65;;;5.10;99.90;;;;;;5109240;28;20024;-49
2022/01/29 10:28:14;;;;;;;12.02;7.40;;;5.10;99.90;;;;;;5090723;28;20023;-51
2022/01/29 10:30:48;;;;;;;18.63;10.15;;;5.20;99.90;;;;;;5109088;28;20096;-52
2022/01/29 10:33:45;;;;;;;14.75;9.23;;;5.20;99.90;;;;;;5106745;28;20434;-51
2022/01/29 10:37:09;;;;;;;14.73;8.43;;;5.20;99.90;;;;;;5088498;28;20127;-53
2022/01/29 10:40:01;;;;;;;14.10;9.10;;;5.30;99.90;;;;;;5085006;28;20377;-50
2022/01/29 10:42:31;;;;;;;19.17;8.80;;;5.30;99.90;;;;;;5101625;28;20038;-54
2022/01/29 10:45:06;;;;;;;18.52;10.13;;;5.30;99.90;;;;;;5107103;28;20040;-53
2022/01/29 10:48:11;;;;;;;19.92;11.05;;;5.40;99.90;;;;;;5088812;28;20036;-53
2022/01/29 10:51:49;;;;;;;15.65;8.82;;;5.40;99.90;;;;;;5105472;28;20051;-50
2022/01/29 10:55:17;;;;;;;19.77;9.52;;;5.50;99.90;;;;;;5102882;28;20403;-52
2022/01/29 10:58:22;;;;;;;;;;;5.50;99.90;;;;;;5104046;28;20035;-49
2022/01/29 11:01:37;;;;;;;18.70;11.63;;;5.60;99.90;;;;;;5098690;28;19915;-50
2022/01/29 11:05:04;;;;;;;18.45;10.68;;;5.70;99.90;;;;;;5096390;28;20039;-53
2022/01/29 11:08:28;;;;;;;20.90;11.88;;;5.80;99.90;;;;;;5090865;28;20039;-53
2022/01/29 11:11:53;;;;;;;20.27;11.43;;;5.80;99.90;;;;;;5082468;28;20127;-51
2022/01/29 11:15:18;;;;;;;17.00;11.10;;;5.90;99.90;;;;;;5102314;28;20031;-52
2022/01/29 11:18:44;;;;;;;20.88;10.38;;;5.90;99.90;;;;;;5102621;28;20045;-54
2022/01/29 11:22:09;;;;;;;18.23;9.85;;;6.00;99.90;;;;;;5102619;28;20561;-53
2022/01/29 11:25:43;;;;;;;25.27;13.70;;;6.00;99.90;;;;;;5104454;28;20456;-53
2022/01/29 11:29:09;;;;;;;18.52;11.18;;;6.10;99.90;;;;;;5104555;28;20411;-53
2022/01/29 11:32:23;;;;;;;22.17;11.65;;;6.20;99.90;;;;;;5106165;28;20047;-54
2022/01/29 11:35:31;;;;;;;18.55;11.88;;;6.30;99.90;;;;;;5106260;28;20043;-51
2022/01/29 11:39:12;;;;;;;15.07;8.93;;;6.40;99.90;;;;;;5102478;28;20447;-54
2022/01/29 11:42:15;;;;;;;16.58;10.02;;;6.50;99.90;;;;;;5086646;28;20455;-49
2022/01/29 11:45:35;;;;;;;18.52;11.80;;;6.50;99.90;;;;;;5106152;28;20157;-53
2022/01/29 11:48:39;;;;;;;16.80;9.82;;;6.60;99.90;;;;;;5107516;28;20487;-51
2022/01/29 11:52:04;;;;;;;14.93;9.77;;;6.70;99.90;;;;;;5100912;28;20039;-51
2022/01/29 11:55:39;;;;;;;17.23;9.73;;;6.80;99.90;;;;;;5100410;28;20047;-53
2022/01/29 11:59:03;;;;;;;13.27;8.98;;;6.80;99.90;;;;;;5087677;28;20450;-50
2022/01/29 12:02:14;;;;;;;13.40;9.45;;;6.80;99.90;;;;;;5104883;28;20036;-52
2022/01/29 12:05:40;;;;;;;13.45;8.15;;;6.90;99.90;;;;;;5099824;28;20043;-53
2022/01/29 12:08:59;;;;;;;11.20;8.02;;;6.90;99.90;;;;;;5087654;28;20496;-54
2022/01/29 12:12:32;;;;;;;16.63;9.75;;;6.90;99.90;;;;;;5087454;28;20165;-52
2022/01/29 12:15:21;;;;;;;14.98;9.70;;;7.00;99.90;;;;;;5105034;28;20470;-52
2022/01/29 12:18:45;;;;;;;16.13;9.77;;;7.00;99.90;;;;;;5111206;28;20047;-51
2022/01/29 12:22:11;;;;;;;14.57;8.90;;;7.10;99.90;;;;;;5107310;28;20043;-53
2022/01/29 12:25:36;;;;;;;11.98;8.82;;;7.10;99.90;;;;;;5105803;28;20035;-52
2022/01/29 12:29:07;;;;;;;15.98;8.80;;;7.20;99.90;;;;;;5105872;28;20074;-50
2022/01/29 12:32:33;;;;;;;14.73;9.00;;;7.20;99.90;;;;;;5105682;28;20074;-55
2022/01/29 12:36:05;;;;;;;13.27;8.05;;;7.20;99.90;;;;;;5099321;28;20032;-54
2022/01/29 12:39:29;;;;;;;15.88;10.23;;;7.30;99.90;;;;;;5086919;28;20491;-53
2022/01/29 12:43:00;;;;;;;13.75;8.32;;;7.30;99.90;;;;;;5102670;28;20046;-55
2022/01/29 12:46:26;;;;;;;13.55;8.13;;;7.30;99.90;;;;;;5095311;28;20039;-49
2022/01/29 12:50:00;;;;;;;12.57;8.80;;;7.30;99.90;;;;;;5105626;28;20487;-48
2022/01/29 12:53:26;;;;;;;10.05;7.13;;;7.40;99.90;;;;;;5094423;28;20040;-53
2022/01/29 12:56:51;;;;;;;10.45;7.40;;;7.40;99.90;;;;;;5088303;28;20043;-53
2022/01/29 13:00:16;;;;;;;9.25;5.65;;;7.40;99.90;;;;;;5106579;28;20119;-52
2022/01/29 13:03:41;;;;;;;10.25;6.55;;;7.40;99.90;;;;;;5108304;28;20039;-56
2022/01/29 13:07:07;;;;;;;12.70;7.00;;;7.50;99.90;;;;;;5103054;28;20039;-53
2022/01/29 13:10:35;;;;;;;10.52;6.13;;;7.50;99.90;;;;;;5104496;28;20130;-53
2022/01/29 13:13:50;;;;;;;;;;;7.50;99.90;;;;;;5101662;28;20036;-50
2022/01/29 13:17:20;;;;;;;10.23;6.18;;;7.50;99.90;;;;;;5106458;28;19994;-52
2022/01/29 13:20:24;;;;;;;;;;;7.60;99.90;;;;;;5103316;28;20051;-52
2022/01/29 13:23:52;;;;;;;10.20;6.32;;;7.70;99.90;;;;;;5107780;28;19918;-55
2022/01/29 13:27:30;;;;;;;9.93;6.07;;;7.70;99.90;;;;;;5091362;28;20461;-50
2022/01/29 13:30:55;;;;;;;11.15;6.40;;;7.70;99.90;;;;;;5089987;28;20498;-49
2022/01/29 13:34:20;;;;;;;10.15;5.00;;;7.70;99.90;;;;;;5107988;28;20109;-49
2022/01/29 13:37:28;;;;;;;9.30;6.28;;;7.80;99.90;;;;;;5106663;28;20048;-53
2022/01/29 13:40:54;;;;;;;8.10;5.03;;;7.80;99.90;;;;;;5101245;28;20028;-49
2022/01/29 13:44:28;;;;;;;8.80;5.65;;;7.90;99.90;;;;;;5102905;28;20039;-53
2022/01/29 13:47:54;;;;;;;9.02;5.32;;;7.90;99.90;;;;;;5103889;28;20043;-51
2022/01/29 13:51:22;;;;;;;8.20;5.47;;;8.00;99.90;;;;;;5091604;28;20040;-51
2022/01/29 13:54:47;;;;;;;7.95;5.20;;;8.00;99.90;;;;;;5087106;28;20040;-53
2022/01/29 13:58:25;;;;;;;7.70;5.20;;;8.10;99.90;;;;;;5097506;28;20061;-48
2022/01/29 14:02:07;;;;;;;6.05;4.80;;;8.10;99.90;;;;;;5100145;28;20127;-51
2022/01/29 14:05:30;;;;;;;5.60;3.88;;;8.20;99.90;;;;;;5104621;28;20043;-49
2022/01/29 14:08:56;;;;;;;7.95;4.15;;;8.20;99.90;;;;;;5106853;28;20051;-54
2022/01/29 14:12:36;;;;;;;5.75;3.97;;;8.20;99.90;;;;;;5102114;28;20548;-53
2022/01/29 14:16:02;;;;;;;5.38;3.60;;;8.30;99.90;;;;;;5099477;28;20853;-51
2022/01/29 14:19:36;;;;;;;4.75;3.60;;;8.30;99.90;;;;;;5100069;28;20044;-50
2022/01/29 14:23:01;;;;;;;4.47;3.65;;;8.30;99.90;;;;;;5106344;28;20063;-50
2022/01/29 14:26:27;;;;;;;4.78;3.17;;;8.30;99.90;;;;;;5103144;28;20611;-51
2022/01/29 14:29:52;;;;;;;6.18;3.80;;;8.30;99.90;;;;;;5099491;28;20098;-52
2022/01/29 14:33:17;;;;;;;3.42;2.50;;;8.40;99.90;;;;;;5103534;28;20036;-51
2022/01/29 14:36:43;;;;;;;4.65;2.60;;;8.40;99.90;;;;;;5101551;28;20097;-50
2022/01/29 14:40:12;;;;;;;3.30;2.58;;;8.40;99.90;;;;;;5095997;28;20398;-51
2022/01/29 14:43:36;;;;;;;2.58;2.13;;;8.40;99.90;;;;;;5097677;28;20134;-52
2022/01/29 14:47:02;;;;;;;4.47;2.65;;;8.40;99.90;;;;;;5104735;28;20471;-53
2022/01/29 14:50:29;;;;;;;2.95;2.63;;;8.40;99.90;;;;;;5091728;28;20084;-50
2022/01/29 14:53:53;;;;;;;2.67;1.88;;;8.40;99.90;;;;;;5100100;28;20041;-51
2022/01/29 14:57:18;;;;;;;3.72;2.30;;;8.40;99.90;;;;;;5100197;28;20039;-48
2022/01/29 15:00:44;;;;;;;2.55;2.00;;;8.40;99.90;;;;;;5091307;28;20043;-52
2022/01/29 15:04:09;;;;;;;3.45;2.40;;;8.40;99.90;;;;;;5103100;28;20067;-50
2022/01/29 15:07:34;;;;;;;3.05;2.42;;;8.40;99.90;;;;;;5103098;28;20510;-50
2022/01/29 15:11:00;;;;;;;3.20;2.13;;;8.40;99.90;;;;;;5095934;28;20092;-55
2022/01/29 15:14:25;;;;;;;2.67;2.00;;;8.30;99.90;;;;;;5098282;28;20031;-50
2022/01/29 15:17:50;;;;;;;2.95;2.65;;;8.30;99.90;;;;;;5103909;28;20047;-49
2022/01/29 15:21:16;;;;;;;3.25;2.53;;;8.30;99.90;;;;;;5103358;28;20082;-50
2022/01/29 15:24:41;;;;;;;3.65;2.50;;;8.20;99.90;;;;;;5093402;28;21380;-52
2022/01/29 15:28:06;;;;;;;2.67;1.90;;;8.30;99.90;;;;;;5106495;28;20041;-51
2022/01/29 15:31:32;;;;;;;3.70;2.85;;;8.20;99.90;;;;;;5102565;28;20031;-50
2022/01/29 15:34:17;;;;;;;3.20;2.40;;;8.20;99.90;;;;;;5108057;28;20031;-62
2022/01/29 15:36:43;;;;;;;2.35;2.15;;;8.20;99.90;;;;;;5093689;28;20497;-61
2022/01/29 15:39:08;;;;;;;3.38;2.50;;;8.20;99.90;;;;;;5107547;28;20035;-61
2022/01/29 15:41:34;;;;;;;3.97;2.25;;;8.30;99.90;;;;;;5106518;28;20502;-61
2022/01/29 15:43:59;;;;;;;3.97;2.78;;;8.30;99.90;;;;;;5105024;28;20031;-61
2022/01/29 15:46:25;;;;;;;4.32;2.97;;;8.30;99.90;;;;;;5105933;28;20080;-62
2022/01/29 15:48:51;;;;;;;4.07;2.97;;;8.30;99.90;;;;;;5108178;28;20024;-62
2022/01/29 15:51:56;;;;;;;4.53;3.15;;;8.30;99.90;;;;;;5107149;28;20427;-61
2022/01/29 15:55:22;;;;;;;5.07;2.53;;;8.40;99.90;;;;;;5106709;28;20039;-60
2022/01/29 15:58:47;;;;;;;3.38;2.72;;;8.40;99.90;;;;;;5106207;28;20047;-60
2022/01/29 16:02:12;;;;;;;3.60;2.88;;;8.30;99.90;;;;;;5108423;28;20057;-61
2022/01/29 16:05:38;;;;;;;3.67;3.00;;;8.40;99.90;;;;;;5106404;28;20066;-61
2022/01/29 16:09:03;;;;;;;5.75;3.72;;;8.40;99.90;;;;;;5091804;28;20040;-60
2022/01/29 16:12:32;;;;;;;4.72;3.53;;;8.40;99.90;;;;;;5107273;28;20572;-61
2022/01/29 16:15:54;;;;;;;5.15;3.75;;;8.40;99.90;;;;;;5103240;28;20070;-60
2022/01/29 16:19:19;;;;;;;4.45;3.35;;;8.50;99.90;;;;;;5105857;28;20044;-60
2022/01/29 16:22:45;;;;;;;4.45;3.10;;;8.50;99.90;;;;;;5104874;28;20534;-61
2022/01/29 16:26:10;;;;;;;6.60;3.28;;;8.50;99.90;;;;;;5107629;28;20038;-61
2022/01/29 16:29:35;;;;;;;5.35;3.20;;;8.50;99.90;;;;;;5091482;28;20061;-62
2022/01/29 16:33:01;;;;;;;4.22;3.15;;;8.50;99.90;;;;;;5107081;28;20032;-60
2022/01/29 16:36:26;;;;;;;3.60;2.67;;;8.50;99.90;;;;;;5106405;28;20027;-61
2022/01/29 16:39:51;;;;;;;5.13;3.17;;;8.50;99.90;;;;;;5091181;28;20506;-60
2022/01/29 16:43:17;;;;;;;7.35;4.00;;;8.50;99.90;;;;;;5102572;28;20040;-62
2022/01/29 16:46:42;;;;;;;5.85;4.40;;;8.50;99.90;;;;;;5109224;28;20039;-62
2022/01/29 16:50:07;;;;;;;4.22;3.15;;;8.50;99.90;;;;;;5091161;28;20097;-61
2022/01/29 16:53:33;;;;;;;5.85;3.58;;;8.50;99.90;;;;;;5109350;28;20067;-60
2022/01/29 16:56:59;;;;;;;5.32;3.97;;;8.50;99.90;;;;;;5103808;28;20540;-62
2022/01/29 17:00:24;;;;;;;6.78;4.30;;;8.50;99.90;;;;;;5104748;28;20035;-62
2022/01/29 17:03:51;;;;;;;4.65;3.67;;;8.60;99.90;;;;;;5106064;28;20062;-63
2022/01/29 17:07:16;;;;;;;4.90;3.65;;;8.60;99.90;;;;;;5102841;28;20083;-62
2022/01/29 17:10:40;;;;;;;12.60;6.18;;;8.60;99.90;;;;;;5104054;28;20042;-63
2022/01/29 17:14:05;;;;;;;7.35;5.60;;;8.60;99.90;;;;;;5103050;28;20092;-62
2022/01/29 17:17:30;;;;;;;6.03;4.45;;;8.60;99.90;;;;;;5090479;28;20052;-62
2022/01/29 17:20:56;;;;;;;6.57;4.45;;;8.60;99.90;;;;;;5106823;28;20449;-61
2022/01/29 17:24:22;;;;;;;7.25;5.75;;;8.60;99.90;;;;;;5106447;28;20052;-62
2022/01/29 17:27:47;;;;;;;7.18;5.35;;;8.50;99.90;;;;;;5110271;28;20039;-61
2022/01/29 17:31:13;;;;;;;7.13;5.45;;;8.50;99.90;;;;;;5104290;28;20142;-61